sensor_id;sensor_type;location;lat;lon;timestamp;temperature;humidity
61841;DHT22;47773;53.174;6.614;2023-06-19T00:02:06;21.50;99.90
61841;DHT22;47773;53.174;6.614;2023-06-19T00:04:32;21.50;99.90
61841;DHT22;47773;53.174;6.614;2023-06-19T00:06:59;21.50;99.90
61841;DHT22;47773;53.174;6.614;2023-06-19T00:09:25;21.50;99.90
61841;DHT22;47773;53.174;6.614;2023-06-19T00:11:51;21.50;99.90
61841;DHT22;47773;53.174;6.614;2023-06-19T00:14:16;21.50;99.90
61841;DHT22;47773;53.174;6.614;2023-06-19T00:16:43;21.40;99.90
61841;DHT22;47773;53.174;6.614;2023-06-19T00:19:09;21.50;99.90
61841;DHT22;47773;53.174;6.614;2023-06-19T00:21:36;21.40;99.90
61841;DHT22;47773;53.174;6.614;2023-06-19T00:24:03;21.50;99.90
61841;DHT22;47773;53.174;6.614;2023-06-19T00:26:28;21.50;99.90
61841;DHT22;47773;53.174;6.614;2023-06-19T00:28:54;21.50;99.90
61841;DHT22;47773;53.174;6.614;2023-06-19T00:31:20;21.40;99.90
61841;DHT22;47773;53.174;6.614;2023-06-19T00:33:46;21.40;99.90
61841;DHT22;47773;53.174;6.614;2023-06-19T00:36:15;21.30;99.90
61841;DHT22;47773;53.174;6.614;2023-06-19T00:38:42;21.30;99.90
61841;DHT22;47773;53.174;6.614;2023-06-19T00:41:08;21.30;99.90
61841;DHT22;47773;53.174;6.614;2023-06-19T00:43:34;21.30;99.90
61841;DHT22;47773;53.174;6.614;2023-06-19T00:46:00;21.30;99.90
61841;DHT22;47773;53.174;6.614;2023-06-19T00:48:27;21.20;99.90
61841;DHT22;47773;53.174;6.614;2023-06-19T00:50:54;21.30;99.90
61841;DHT22;47773;53.174;6.614;2023-06-19T00:53:22;21.20;99.90
61841;DHT22;47773;53.174;6.614;2023-06-19T00:55:49;21.20;99.90
61841;DHT22;47773;53.174;6.614;2023-06-19T00:58:17;21.20;99.90
61841;DHT22;47773;53.174;6.614;2023-06-19T01:00:43;21.20;99.90
61841;DHT22;47773;53.174;6.614;2023-06-19T01:03:09;21.20;99.90
61841;DHT22;47773;53.174;6.614;2023-06-19T01:05:35;21.20;99.90
61841;DHT22;47773;53.174;6.614;2023-06-19T01:08:59;21.20;99.90
61841;DHT22;47773;53.174;6.614;2023-06-19T01:11:05;21.20;99.90
61841;DHT22;47773;53.174;6.614;2023-06-19T01:13:42;21.20;99.90
61841;DHT22;47773;53.174;6.614;2023-06-19T01:16:10;21.20;99.90
61841;DHT22;47773;53.174;6.614;2023-06-19T01:18:37;21.20;99.90
61841;DHT22;47773;53.174;6.614;2023-06-19T01:21:13;21.20;99.90
61841;DHT22;47773;53.174;6.614;2023-06-19T01:23:39;21.20;99.90
61841;DHT22;47773;53.174;6.614;2023-06-19T01:26:06;21.20;99.90
61841;DHT22;47773;53.174;6.614;2023-06-19T01:28:33;21.20;99.90
61841;DHT22;47773;53.174;6.614;2023-06-19T01:31:00;21.20;99.90
61841;DHT22;47773;53.174;6.614;2023-06-19T01:33:28;21.20;99.90
61841;DHT22;47773;53.174;6.614;2023-06-19T01:35:57;21.30;99.90
61841;DHT22;47773;53.174;6.614;2023-06-19T01:38:24;21.30;99.90
61841;DHT22;47773;53.174;6.614;2023-06-19T01:40:56;21.30;99.90
61841;DHT22;47773;53.174;6.614;2023-06-19T01:43:23;21.30;99.90
61841;DHT22;47773;53.174;6.614;2023-06-19T01:45:50;21.30;99.90
61841;DHT22;47773;53.174;6.614;2023-06-19T01:48:16;21.30;99.90
61841;DHT22;47773;53.174;6.614;2023-06-19T01:50:45;21.30;99.90
61841;DHT22;47773;53.174;6.614;2023-06-19T01:53:12;21.30;99.90
61841;DHT22;47773;53.174;6.614;2023-06-19T01:55:38;21.30;99.90
61841;DHT22;47773;53.174;6.614;2023-06-19T01:58:04;21.30;99.90
61841;DHT22;47773;53.174;6.614;2023-06-19T02:00:29;21.30;99.90
61841;DHT22;47773;53.174;6.614;2023-06-19T02:02:56;21.30;99.90
61841;DHT22;47773;53.174;6.614;2023-06-19T02:05:22;21.30;99.90
61841;DHT22;47773;53.174;6.614;2023-06-19T02:07:47;21.30;99.90
61841;DHT22;47773;53.174;6.614;2023-06-19T02:10:13;21.40;99.90
61841;DHT22;47773;53.174;6.614;2023-06-19T02:12:38;21.40;99.90
61841;DHT22;47773;53.174;6.614;2023-06-19T02:15:04;21.40;99.90
61841;DHT22;47773;53.174;6.614;2023-06-19T02:17:30;21.40;99.90
61841;DHT22;47773;53.174;6.614;2023-06-19T02:19:56;21.40;99.90
61841;DHT22;47773;53.174;6.614;2023-06-19T02:22:21;21.40;99.90
61841;DHT22;47773;53.174;6.614;2023-06-19T02:24:47;21.40;99.90
61841;DHT22;47773;53.174;6.614;2023-06-19T02:27:13;21.40;99.90
61841;DHT22;47773;53.174;6.614;2023-06-19T02:29:38;21.40;99.90
61841;DHT22;47773;53.174;6.614;2023-06-19T02:32:04;21.40;99.90
61841;DHT22;47773;53.174;6.614;2023-06-19T02:34:30;21.40;99.90
61841;DHT22;47773;53.174;6.614;2023-06-19T02:36:55;21.30;99.90
61841;DHT22;47773;53.174;6.614;2023-06-19T02:39:21;21.30;99.90
61841;DHT22;47773;53.174;6.614;2023-06-19T02:41:48;21.40;99.90
61841;DHT22;47773;53.174;6.614;2023-06-19T02:44:14;21.30;99.90
61841;DHT22;47773;53.174;6.614;2023-06-19T02:46:40;21.30;99.90
61841;DHT22;47773;53.174;6.614;2023-06-19T02:49:05;21.40;99.90
61841;DHT22;47773;53.174;6.614;2023-06-19T02:51:31;21.30;99.90
61841;DHT22;47773;53.174;6.614;2023-06-19T02:53:57;21.30;99.90
61841;DHT22;47773;53.174;6.614;2023-06-19T02:56:24;21.40;99.90
61841;DHT22;47773;53.174;6.614;2023-06-19T02:58:50;21.40;99.90
61841;DHT22;47773;53.174;6.614;2023-06-19T03:01:16;21.40;99.90
61841;DHT22;47773;53.174;6.614;2023-06-19T03:03:41;21.40;99.90
61841;DHT22;47773;53.174;6.614;2023-06-19T03:06:08;21.40;99.90
61841;DHT22;47773;53.174;6.614;2023-06-19T03:08:37;21.40;99.90
61841;DHT22;47773;53.174;6.614;2023-06-19T03:11:03;21.40;99.90
61841;DHT22;47773;53.174;6.614;2023-06-19T03:13:46;21.40;99.90
61841;DHT22;47773;53.174;6.614;2023-06-19T03:16:12;21.40;99.90
61841;DHT22;47773;53.174;6.614;2023-06-19T03:18:38;21.40;99.90
61841;DHT22;47773;53.174;6.614;2023-06-19T03:21:03;21.40;99.90
61841;DHT22;47773;53.174;6.614;2023-06-19T03:23:29;21.40;99.90
61841;DHT22;47773;53.174;6.614;2023-06-19T03:25:55;21.40;99.90
61841;DHT22;47773;53.174;6.614;2023-06-19T03:28:21;21.40;99.90
61841;DHT22;47773;53.174;6.614;2023-06-19T03:30:47;21.40;99.90
61841;DHT22;47773;53.174;6.614;2023-06-19T03:33:12;21.40;99.90
61841;DHT22;47773;53.174;6.614;2023-06-19T03:35:38;21.40;99.90
61841;DHT22;47773;53.174;6.614;2023-06-19T03:38:03;21.40;99.90
61841;DHT22;47773;53.174;6.614;2023-06-19T03:40:29;21.40;99.90
61841;DHT22;47773;53.174;6.614;2023-06-19T03:42:55;21.40;99.90
61841;DHT22;47773;53.174;6.614;2023-06-19T03:45:20;21.40;99.90
61841;DHT22;47773;53.174;6.614;2023-06-19T03:47:46;21.40;99.90
61841;DHT22;47773;53.174;6.614;2023-06-19T03:50:11;21.40;99.90
61841;DHT22;47773;53.174;6.614;2023-06-19T03:52:37;21.40;99.90
61841;DHT22;47773;53.174;6.614;2023-06-19T03:55:03;21.50;99.90
61841;DHT22;47773;53.174;6.614;2023-06-19T03:57:29;21.50;99.90
61841;DHT22;47773;53.174;6.614;2023-06-19T03:59:56;21.50;99.90
61841;DHT22;47773;53.174;6.614;2023-06-19T04:02:22;21.50;99.90
61841;DHT22;47773;53.174;6.614;2023-06-19T04:04:48;21.50;99.90
61841;DHT22;47773;53.174;6.614;2023-06-19T04:07:13;21.50;99.90
61841;DHT22;47773;53.174;6.614;2023-06-19T04:09:39;21.50;99.90
61841;DHT22;47773;53.174;6.614;2023-06-19T04:12:05;21.50;99.90
61841;DHT22;47773;53.174;6.614;2023-06-19T04:14:31;21.50;99.90
61841;DHT22;47773;53.174;6.614;2023-06-19T04:16:57;21.50;99.90
61841;DHT22;47773;53.174;6.614;2023-06-19T04:19:22;21.50;99.90
61841;DHT22;47773;53.174;6.614;2023-06-19T04:21:48;21.50;99.90
61841;DHT22;47773;53.174;6.614;2023-06-19T04:24:13;21.50;99.90
61841;DHT22;47773;53.174;6.614;2023-06-19T04:26:39;21.60;99.90
61841;DHT22;47773;53.174;6.614;2023-06-19T04:29:06;21.60;99.90
61841;DHT22;47773;53.174;6.614;2023-06-19T04:31:32;21.60;99.90
61841;DHT22;47773;53.174;6.614;2023-06-19T04:33:58;21.60;99.90
61841;DHT22;47773;53.174;6.614;2023-06-19T04:36:24;21.60;99.90
61841;DHT22;47773;53.174;6.614;2023-06-19T04:38:50;21.70;99.90
61841;DHT22;47773;53.174;6.614;2023-06-19T04:41:18;21.70;99.90
61841;DHT22;47773;53.174;6.614;2023-06-19T04:43:44;21.70;99.90
61841;DHT22;47773;53.174;6.614;2023-06-19T04:46:09;21.70;99.90
61841;DHT22;47773;53.174;6.614;2023-06-19T04:48:35;21.70;99.90
61841;DHT22;47773;53.174;6.614;2023-06-19T04:51:02;21.70;99.90
61841;DHT22;47773;53.174;6.614;2023-06-19T04:53:28;21.70;99.90
61841;DHT22;47773;53.174;6.614;2023-06-19T04:55:54;21.60;99.90
61841;DHT22;47773;53.174;6.614;2023-06-19T04:58:21;21.60;99.90
61841;DHT22;47773;53.174;6.614;2023-06-19T05:00:47;21.60;99.90
61841;DHT22;47773;53.174;6.614;2023-06-19T05:03:19;21.60;99.90
61841;DHT22;47773;53.174;6.614;2023-06-19T05:05:47;21.60;99.90
61841;DHT22;47773;53.174;6.614;2023-06-19T05:08:13;21.50;99.90
61841;DHT22;47773;53.174;6.614;2023-06-19T05:10:38;21.40;99.90
61841;DHT22;47773;53.174;6.614;2023-06-19T05:13:04;21.40;99.90
61841;DHT22;47773;53.174;6.614;2023-06-19T05:15:30;21.40;99.90
61841;DHT22;47773;53.174;6.614;2023-06-19T05:17:55;21.40;99.90
61841;DHT22;47773;53.174;6.614;2023-06-19T05:20:21;21.40;99.90
61841;DHT22;47773;53.174;6.614;2023-06-19T05:22:47;21.30;99.90
61841;DHT22;47773;53.174;6.614;2023-06-19T05:25:12;21.30;99.90
61841;DHT22;47773;53.174;6.614;2023-06-19T05:27:38;21.30;99.90
61841;DHT22;47773;53.174;6.614;2023-06-19T05:30:04;21.30;99.90
61841;DHT22;47773;53.174;6.614;2023-06-19T05:32:30;21.30;99.90
61841;DHT22;47773;53.174;6.614;2023-06-19T05:34:56;21.30;99.90
61841;DHT22;47773;53.174;6.614;2023-06-19T05:37:22;21.30;99.90
61841;DHT22;47773;53.174;6.614;2023-06-19T05:39:48;21.30;99.90
61841;DHT22;47773;53.174;6.614;2023-06-19T05:42:14;21.30;99.90
61841;DHT22;47773;53.174;6.614;2023-06-19T05:44:40;21.40;99.90
61841;DHT22;47773;53.174;6.614;2023-06-19T05:47:06;21.40;99.90
61841;DHT22;47773;53.174;6.614;2023-06-19T05:49:32;21.40;99.90
61841;DHT22;47773;53.174;6.614;2023-06-19T05:51:57;21.40;99.90
61841;DHT22;47773;53.174;6.614;2023-06-19T05:54:26;21.40;99.90
61841;DHT22;47773;53.174;6.614;2023-06-19T05:56:52;21.50;99.90
61841;DHT22;47773;53.174;6.614;2023-06-19T05:59:18;21.50;99.90
61841;DHT22;47773;53.174;6.614;2023-06-19T06:01:44;21.60;99.90
61841;DHT22;47773;53.174;6.614;2023-06-19T06:04:09;21.70;99.90
61841;DHT22;47773;53.174;6.614;2023-06-19T06:06:35;21.70;99.90
61841;DHT22;47773;53.174;6.614;2023-06-19T06:09:01;21.60;99.90
61841;DHT22;47773;53.174;6.614;2023-06-19T06:11:27;21.60;99.90
61841;DHT22;47773;53.174;6.614;2023-06-19T06:13:52;21.60;99.90
61841;DHT22;47773;53.174;6.614;2023-06-19T06:16:18;21.50;99.90
61841;DHT22;47773;53.174;6.614;2023-06-19T06:18:45;21.50;99.90
61841;DHT22;47773;53.174;6.614;2023-06-19T06:21:10;21.50;99.90
61841;DHT22;47773;53.174;6.614;2023-06-19T06:23:40;21.50;99.90
61841;DHT22;47773;53.174;6.614;2023-06-19T06:26:05;21.50;99.90
61841;DHT22;47773;53.174;6.614;2023-06-19T06:28:31;21.50;99.90
61841;DHT22;47773;53.174;6.614;2023-06-19T06:30:57;21.60;99.90
61841;DHT22;47773;53.174;6.614;2023-06-19T06:33:23;21.50;99.90
61841;DHT22;47773;53.174;6.614;2023-06-19T06:35:49;21.50;99.90
61841;DHT22;47773;53.174;6.614;2023-06-19T06:38:14;21.50;99.90
61841;DHT22;47773;53.174;6.614;2023-06-19T06:40:40;21.60;99.90
61841;DHT22;47773;53.174;6.614;2023-06-19T06:43:08;21.50;99.90
61841;DHT22;47773;53.174;6.614;2023-06-19T06:45:34;21.60;99.90
61841;DHT22;47773;53.174;6.614;2023-06-19T06:48:00;21.60;99.90
61841;DHT22;47773;53.174;6.614;2023-06-19T06:50:25;21.70;99.90
61841;DHT22;47773;53.174;6.614;2023-06-19T06:52:51;21.70;99.90
61841;DHT22;47773;53.174;6.614;2023-06-19T06:55:17;21.70;99.90
61841;DHT22;47773;53.174;6.614;2023-06-19T06:57:42;21.70;99.90
61841;DHT22;47773;53.174;6.614;2023-06-19T07:00:08;21.70;99.90
61841;DHT22;47773;53.174;6.614;2023-06-19T07:02:37;21.70;99.90
61841;DHT22;47773;53.174;6.614;2023-06-19T07:05:04;21.70;99.90
61841;DHT22;47773;53.174;6.614;2023-06-19T07:07:29;21.60;99.90
61841;DHT22;47773;53.174;6.614;2023-06-19T07:09:55;21.60;99.90
61841;DHT22;47773;53.174;6.614;2023-06-19T07:12:20;21.40;99.90
61841;DHT22;47773;53.174;6.614;2023-06-19T07:14:46;21.40;99.90
61841;DHT22;47773;53.174;6.614;2023-06-19T07:17:12;21.30;99.90
61841;DHT22;47773;53.174;6.614;2023-06-19T07:19:37;21.20;99.90
61841;DHT22;47773;53.174;6.614;2023-06-19T07:22:03;21.20;99.90
61841;DHT22;47773;53.174;6.614;2023-06-19T07:24:29;21.10;99.90
61841;DHT22;47773;53.174;6.614;2023-06-19T07:26:55;21.00;99.90
61841;DHT22;47773;53.174;6.614;2023-06-19T07:29:22;20.90;99.90
61841;DHT22;47773;53.174;6.614;2023-06-19T07:31:47;20.90;99.90
61841;DHT22;47773;53.174;6.614;2023-06-19T07:34:13;20.80;99.90
61841;DHT22;47773;53.174;6.614;2023-06-19T07:36:39;20.80;99.90
61841;DHT22;47773;53.174;6.614;2023-06-19T07:39:05;20.80;99.90
61841;DHT22;47773;53.174;6.614;2023-06-19T07:41:30;20.70;99.90
61841;DHT22;47773;53.174;6.614;2023-06-19T07:43:56;20.70;99.90
61841;DHT22;47773;53.174;6.614;2023-06-19T07:46:22;20.80;99.90
61841;DHT22;47773;53.174;6.614;2023-06-19T07:48:47;20.70;99.90
61841;DHT22;47773;53.174;6.614;2023-06-19T07:51:13;20.70;99.90
61841;DHT22;47773;53.174;6.614;2023-06-19T07:53:38;20.70;99.90
61841;DHT22;47773;53.174;6.614;2023-06-19T07:56:05;20.70;99.90
61841;DHT22;47773;53.174;6.614;2023-06-19T07:58:30;20.80;99.90
61841;DHT22;47773;53.174;6.614;2023-06-19T08:00:56;20.80;99.90
61841;DHT22;47773;53.174;6.614;2023-06-19T08:03:22;20.80;99.90
61841;DHT22;47773;53.174;6.614;2023-06-19T08:05:49;20.90;99.90
61841;DHT22;47773;53.174;6.614;2023-06-19T08:08:15;20.90;99.90
61841;DHT22;47773;53.174;6.614;2023-06-19T08:10:40;20.90;99.90
61841;DHT22;47773;53.174;6.614;2023-06-19T08:13:06;20.90;99.90
61841;DHT22;47773;53.174;6.614;2023-06-19T08:15:32;20.90;99.90
61841;DHT22;47773;53.174;6.614;2023-06-19T08:17:58;20.90;99.90
61841;DHT22;47773;53.174;6.614;2023-06-19T08:20:24;20.90;99.90
61841;DHT22;47773;53.174;6.614;2023-06-19T08:22:49;20.90;99.90
61841;DHT22;47773;53.174;6.614;2023-06-19T08:25:15;20.90;99.90
61841;DHT22;47773;53.174;6.614;2023-06-19T08:27:41;20.90;99.90
61841;DHT22;47773;53.174;6.614;2023-06-19T08:30:07;20.90;99.90
61841;DHT22;47773;53.174;6.614;2023-06-19T08:32:32;20.90;99.90
61841;DHT22;47773;53.174;6.614;2023-06-19T08:35:00;20.90;99.90
61841;DHT22;47773;53.174;6.614;2023-06-19T08:37:25;20.90;99.90
61841;DHT22;47773;53.174;6.614;2023-06-19T08:39:51;20.90;99.90
61841;DHT22;47773;53.174;6.614;2023-06-19T08:42:16;20.90;99.90
61841;DHT22;47773;53.174;6.614;2023-06-19T08:44:42;20.80;99.90
61841;DHT22;47773;53.174;6.614;2023-06-19T08:47:08;20.90;99.90
61841;DHT22;47773;53.174;6.614;2023-06-19T08:49:36;20.80;99.90
61841;DHT22;47773;53.174;6.614;2023-06-19T08:52:02;20.80;99.90
61841;DHT22;47773;53.174;6.614;2023-06-19T08:54:29;20.80;99.90
61841;DHT22;47773;53.174;6.614;2023-06-19T08:56:54;20.70;99.90
61841;DHT22;47773;53.174;6.614;2023-06-19T08:59:21;20.80;99.90
61841;DHT22;47773;53.174;6.614;2023-06-19T09:01:51;20.70;99.90
61841;DHT22;47773;53.174;6.614;2023-06-19T09:04:21;20.80;99.90
61841;DHT22;47773;53.174;6.614;2023-06-19T09:09:15;20.80;99.90
61841;DHT22;47773;53.174;6.614;2023-06-19T09:11:41;20.80;99.90
61841;DHT22;47773;53.174;6.614;2023-06-19T09:14:10;20.90;99.90
61841;DHT22;47773;53.174;6.614;2023-06-19T09:16:39;21.00;99.90
61841;DHT22;47773;53.174;6.614;2023-06-19T09:19:05;21.10;99.90
61841;DHT22;47773;53.174;6.614;2023-06-19T09:21:31;21.20;99.90
61841;DHT22;47773;53.174;6.614;2023-06-19T09:24:08;21.30;99.90
61841;DHT22;47773;53.174;6.614;2023-06-19T09:26:34;21.50;99.90
61841;DHT22;47773;53.174;6.614;2023-06-19T09:29:14;21.60;99.90
61841;DHT22;47773;53.174;6.614;2023-06-19T09:31:41;21.60;99.90
61841;DHT22;47773;53.174;6.614;2023-06-19T09:34:08;21.70;99.90
61841;DHT22;47773;53.174;6.614;2023-06-19T09:36:35;21.80;99.90
61841;DHT22;47773;53.174;6.614;2023-06-19T09:39:02;22.00;99.90
61841;DHT22;47773;53.174;6.614;2023-06-19T09:41:29;22.10;99.90
61841;DHT22;47773;53.174;6.614;2023-06-19T09:43:56;22.10;99.90
61841;DHT22;47773;53.174;6.614;2023-06-19T09:46:26;22.20;99.90
61841;DHT22;47773;53.174;6.614;2023-06-19T09:48:54;22.10;99.90
61841;DHT22;47773;53.174;6.614;2023-06-19T09:51:29;22.00;99.90
61841;DHT22;47773;53.174;6.614;2023-06-19T09:53:56;22.00;99.90
61841;DHT22;47773;53.174;6.614;2023-06-19T09:56:22;21.80;99.90
61841;DHT22;47773;53.174;6.614;2023-06-19T09:58:51;21.80;99.90
61841;DHT22;47773;53.174;6.614;2023-06-19T10:01:18;21.70;99.90
61841;DHT22;47773;53.174;6.614;2023-06-19T10:03:44;21.60;99.90
61841;DHT22;47773;53.174;6.614;2023-06-19T10:06:14;21.70;99.90
61841;DHT22;47773;53.174;6.614;2023-06-19T10:08:42;21.60;99.90
61841;DHT22;47773;53.174;6.614;2023-06-19T10:11:10;21.70;99.90
61841;DHT22;47773;53.174;6.614;2023-06-19T10:13:37;21.60;99.90
61841;DHT22;47773;53.174;6.614;2023-06-19T10:16:22;21.70;99.90
61841;DHT22;47773;53.174;6.614;2023-06-19T10:18:47;21.70;99.90
61841;DHT22;47773;53.174;6.614;2023-06-19T10:21:20;21.60;99.90
61841;DHT22;47773;53.174;6.614;2023-06-19T10:23:57;21.60;99.90
61841;DHT22;47773;53.174;6.614;2023-06-19T10:26:31;21.70;99.90
61841;DHT22;47773;53.174;6.614;2023-06-19T10:28:57;21.60;99.90
61841;DHT22;47773;53.174;6.614;2023-06-19T10:31:22;21.60;99.90
61841;DHT22;47773;53.174;6.614;2023-06-19T10:33:48;21.50;99.90
61841;DHT22;47773;53.174;6.614;2023-06-19T10:36:22;21.50;99.90
61841;DHT22;47773;53.174;6.614;2023-06-19T10:38:54;21.50;99.90
61841;DHT22;47773;53.174;6.614;2023-06-19T10:41:24;21.40;99.90
61841;DHT22;47773;53.174;6.614;2023-06-19T10:46:21;21.30;99.90
61841;DHT22;47773;53.174;6.614;2023-06-19T10:48:47;21.40;99.90
61841;DHT22;47773;53.174;6.614;2023-06-19T10:51:21;21.40;99.90
61841;DHT22;47773;53.174;6.614;2023-06-19T10:53:46;21.70;99.90
61841;DHT22;47773;53.174;6.614;2023-06-19T10:56:12;21.80;99.90
61841;DHT22;47773;53.174;6.614;2023-06-19T10:58:37;21.80;99.90
61841;DHT22;47773;53.174;6.614;2023-06-19T11:01:03;21.90;99.90
61841;DHT22;47773;53.174;6.614;2023-06-19T11:03:29;21.80;99.90
61841;DHT22;47773;53.174;6.614;2023-06-19T11:05:57;21.80;99.90
61841;DHT22;47773;53.174;6.614;2023-06-19T11:08:23;21.80;99.90
61841;DHT22;47773;53.174;6.614;2023-06-19T11:10:50;21.80;99.90
61841;DHT22;47773;53.174;6.614;2023-06-19T11:13:17;21.90;99.90
61841;DHT22;47773;53.174;6.614;2023-06-19T11:15:44;21.90;99.90
61841;DHT22;47773;53.174;6.614;2023-06-19T11:18:09;21.90;99.90
61841;DHT22;47773;53.174;6.614;2023-06-19T11:23:10;22.10;99.90
61841;DHT22;47773;53.174;6.614;2023-06-19T11:25:37;22.20;99.90
61841;DHT22;47773;53.174;6.614;2023-06-19T11:28:16;22.40;99.90
61841;DHT22;47773;53.174;6.614;2023-06-19T11:30:48;22.80;99.90
61841;DHT22;47773;53.174;6.614;2023-06-19T11:33:20;23.20;99.90
61841;DHT22;47773;53.174;6.614;2023-06-19T11:35:50;23.60;99.90
61841;DHT22;47773;53.174;6.614;2023-06-19T11:38:20;23.70;99.90
61841;DHT22;47773;53.174;6.614;2023-06-19T11:40:47;23.60;99.90
61841;DHT22;47773;53.174;6.614;2023-06-19T11:43:27;23.50;99.90
61841;DHT22;47773;53.174;6.614;2023-06-19T11:45:54;23.40;99.90
61841;DHT22;47773;53.174;6.614;2023-06-19T11:48:25;23.70;99.90
61841;DHT22;47773;53.174;6.614;2023-06-19T11:50:51;24.00;99.90
61841;DHT22;47773;53.174;6.614;2023-06-19T11:53:19;24.30;99.90
61841;DHT22;47773;53.174;6.614;2023-06-19T11:55:45;24.10;99.90
61841;DHT22;47773;53.174;6.614;2023-06-19T11:58:11;24.00;99.90
61841;DHT22;47773;53.174;6.614;2023-06-19T12:00:36;24.00;99.90
61841;DHT22;47773;53.174;6.614;2023-06-19T12:03:03;23.90;99.90
61841;DHT22;47773;53.174;6.614;2023-06-19T12:05:29;24.00;99.90
61841;DHT22;47773;53.174;6.614;2023-06-19T12:07:54;23.80;99.90
61841;DHT22;47773;53.174;6.614;2023-06-19T12:10:21;23.80;99.90
61841;DHT22;47773;53.174;6.614;2023-06-19T12:12:46;23.80;99.90
61841;DHT22;47773;53.174;6.614;2023-06-19T12:15:12;23.80;99.90
61841;DHT22;47773;53.174;6.614;2023-06-19T12:17:38;23.70;99.90
61841;DHT22;47773;53.174;6.614;2023-06-19T12:20:04;23.60;99.90
61841;DHT22;47773;53.174;6.614;2023-06-19T12:22:34;23.60;99.90
61841;DHT22;47773;53.174;6.614;2023-06-19T12:25:01;23.50;99.90
61841;DHT22;47773;53.174;6.614;2023-06-19T12:27:27;23.40;99.90
61841;DHT22;47773;53.174;6.614;2023-06-19T12:29:52;23.40;99.90
61841;DHT22;47773;53.174;6.614;2023-06-19T12:32:18;23.40;99.90
61841;DHT22;47773;53.174;6.614;2023-06-19T12:34:44;23.40;99.90
61841;DHT22;47773;53.174;6.614;2023-06-19T12:37:15;23.40;99.90
61841;DHT22;47773;53.174;6.614;2023-06-19T12:39:43;23.60;99.90
61841;DHT22;47773;53.174;6.614;2023-06-19T12:42:09;23.70;99.90
61841;DHT22;47773;53.174;6.614;2023-06-19T12:44:40;23.90;99.90
61841;DHT22;47773;53.174;6.614;2023-06-19T12:47:07;24.00;99.90
61841;DHT22;47773;53.174;6.614;2023-06-19T12:49:33;24.10;99.90
61841;DHT22;47773;53.174;6.614;2023-06-19T12:51:58;24.20;99.90
61841;DHT22;47773;53.174;6.614;2023-06-19T12:54:25;24.30;99.90
61841;DHT22;47773;53.174;6.614;2023-06-19T12:56:51;24.40;99.90
61841;DHT22;47773;53.174;6.614;2023-06-19T12:59:16;24.30;99.90
61841;DHT22;47773;53.174;6.614;2023-06-19T13:01:42;24.30;99.90
61841;DHT22;47773;53.174;6.614;2023-06-19T13:04:08;24.60;99.90
61841;DHT22;47773;53.174;6.614;2023-06-19T13:06:35;24.50;99.90
61841;DHT22;47773;53.174;6.614;2023-06-19T13:09:01;24.70;99.90
61841;DHT22;47773;53.174;6.614;2023-06-19T13:11:27;24.80;99.90
61841;DHT22;47773;53.174;6.614;2023-06-19T13:13:53;24.90;99.90
61841;DHT22;47773;53.174;6.614;2023-06-19T13:16:18;24.90;99.90
61841;DHT22;47773;53.174;6.614;2023-06-19T13:18:44;24.90;99.90
61841;DHT22;47773;53.174;6.614;2023-06-19T13:21:13;25.20;99.90
61841;DHT22;47773;53.174;6.614;2023-06-19T13:23:40;25.40;99.90
61841;DHT22;47773;53.174;6.614;2023-06-19T13:26:06;25.50;99.90
61841;DHT22;47773;53.174;6.614;2023-06-19T13:28:32;25.60;99.90
61841;DHT22;47773;53.174;6.614;2023-06-19T13:30:58;25.80;99.90
61841;DHT22;47773;53.174;6.614;2023-06-19T13:33:23;25.70;99.90
61841;DHT22;47773;53.174;6.614;2023-06-19T13:35:49;25.80;99.90
61841;DHT22;47773;53.174;6.614;2023-06-19T13:38:15;25.90;99.90
61841;DHT22;47773;53.174;6.614;2023-06-19T13:40:41;26.00;99.50
61841;DHT22;47773;53.174;6.614;2023-06-19T13:43:07;26.00;98.90
61841;DHT22;47773;53.174;6.614;2023-06-19T13:45:33;25.60;98.70
61841;DHT22;47773;53.174;6.614;2023-06-19T13:48:02;25.50;98.80
61841;DHT22;47773;53.174;6.614;2023-06-19T13:50:28;25.30;98.90
61841;DHT22;47773;53.174;6.614;2023-06-19T13:52:53;25.20;98.90
61841;DHT22;47773;53.174;6.614;2023-06-19T13:55:20;25.10;99.20
61841;DHT22;47773;53.174;6.614;2023-06-19T13:57:46;25.20;99.30
61841;DHT22;47773;53.174;6.614;2023-06-19T14:00:12;25.30;98.90
61841;DHT22;47773;53.174;6.614;2023-06-19T14:02:38;25.30;98.70
61841;DHT22;47773;53.174;6.614;2023-06-19T14:05:07;25.30;99.00
61841;DHT22;47773;53.174;6.614;2023-06-19T14:07:34;25.40;98.90
61841;DHT22;47773;53.174;6.614;2023-06-19T14:10:04;25.50;98.80
61841;DHT22;47773;53.174;6.614;2023-06-19T14:12:30;25.50;97.90
61841;DHT22;47773;53.174;6.614;2023-06-19T14:14:56;25.70;97.70
61841;DHT22;47773;53.174;6.614;2023-06-19T14:17:22;25.80;97.50
61841;DHT22;47773;53.174;6.614;2023-06-19T14:19:49;25.70;97.00
61841;DHT22;47773;53.174;6.614;2023-06-19T14:22:14;25.50;97.00
61841;DHT22;47773;53.174;6.614;2023-06-19T14:24:40;25.50;97.10
61841;DHT22;47773;53.174;6.614;2023-06-19T14:27:06;25.50;97.20
61841;DHT22;47773;53.174;6.614;2023-06-19T14:29:32;25.70;97.20
61841;DHT22;47773;53.174;6.614;2023-06-19T14:31:57;25.70;97.00
61841;DHT22;47773;53.174;6.614;2023-06-19T14:34:23;25.60;96.50
61841;DHT22;47773;53.174;6.614;2023-06-19T14:36:48;25.60;95.90
61841;DHT22;47773;53.174;6.614;2023-06-19T14:39:14;25.60;95.80
61841;DHT22;47773;53.174;6.614;2023-06-19T14:41:40;25.50;95.50
61841;DHT22;47773;53.174;6.614;2023-06-19T14:44:05;25.50;95.10
61841;DHT22;47773;53.174;6.614;2023-06-19T14:46:31;25.50;95.20
61841;DHT22;47773;53.174;6.614;2023-06-19T14:48:58;25.60;95.20
61841;DHT22;47773;53.174;6.614;2023-06-19T14:51:26;25.60;94.80
61841;DHT22;47773;53.174;6.614;2023-06-19T14:53:52;25.60;94.50
61841;DHT22;47773;53.174;6.614;2023-06-19T14:56:18;25.60;94.60
61841;DHT22;47773;53.174;6.614;2023-06-19T14:58:43;25.60;94.30
61841;DHT22;47773;53.174;6.614;2023-06-19T15:01:09;25.70;94.40
61841;DHT22;47773;53.174;6.614;2023-06-19T15:03:35;25.50;94.40
61841;DHT22;47773;53.174;6.614;2023-06-19T15:06:03;25.60;94.40
61841;DHT22;47773;53.174;6.614;2023-06-19T15:08:29;25.50;93.70
61841;DHT22;47773;53.174;6.614;2023-06-19T15:10:56;25.50;93.60
61841;DHT22;47773;53.174;6.614;2023-06-19T15:13:23;25.50;93.40
61841;DHT22;47773;53.174;6.614;2023-06-19T15:15:49;25.50;93.10
61841;DHT22;47773;53.174;6.614;2023-06-19T15:18:16;25.40;93.40
61841;DHT22;47773;53.174;6.614;2023-06-19T15:20:42;25.40;92.80
61841;DHT22;47773;53.174;6.614;2023-06-19T15:23:08;25.40;92.60
61841;DHT22;47773;53.174;6.614;2023-06-19T15:25:34;25.40;92.10
61841;DHT22;47773;53.174;6.614;2023-06-19T15:28:00;25.40;92.00
61841;DHT22;47773;53.174;6.614;2023-06-19T15:30:26;25.30;92.10
61841;DHT22;47773;53.174;6.614;2023-06-19T15:32:52;25.30;92.00
61841;DHT22;47773;53.174;6.614;2023-06-19T15:35:18;25.20;92.10